sensor_id;sensor_type;location;lat;lon;timestamp;P1;durP1;ratioP1;P2;durP2;ratioP2
79755;SDS011;69239;50.678;12.280;2024-03-23T00:55:44;8.43;;;5.10;;
79755;SDS011;69239;50.678;12.280;2024-03-23T00:58:09;10.80;;;5.95;;
79755;SDS011;69239;50.678;12.280;2024-03-23T01:00:34;10.57;;;5.47;;
79755;SDS011;69239;50.678;12.280;2024-03-23T01:03:00;10.48;;;5.30;;
79755;SDS011;69239;50.678;12.280;2024-03-23T01:05:25;8.38;;;6.03;;
79755;SDS011;69239;50.678;12.280;2024-03-23T01:07:52;8.05;;;5.38;;
79755;SDS011;69239;50.678;12.280;2024-03-23T01:10:17;7.27;;;5.27;;
79755;SDS011;69239;50.678;12.280;2024-03-23T01:12:42;7.60;;;4.63;;
79755;SDS011;69239;50.678;12.280;2024-03-23T01:15:07;8.17;;;5.27;;
79755;SDS011;69239;50.678;12.280;2024-03-23T01:17:34;6.85;;;4.75;;
79755;SDS011;69239;50.678;12.280;2024-03-23T01:19:59;6.50;;;4.20;;
79755;SDS011;69239;50.678;12.280;2024-03-23T01:22:25;7.53;;;3.83;;
79755;SDS011;69239;50.678;12.280;2024-03-23T01:24:50;8.10;;;4.50;;
79755;SDS011;69239;50.678;12.280;2024-03-23T01:27:15;8.00;;;4.13;;
79755;SDS011;69239;50.678;12.280;2024-03-23T01:29:40;8.13;;;5.50;;
79755;SDS011;69239;50.678;12.280;2024-03-23T01:32:06;9.50;;;5.30;;
79755;SDS011;69239;50.678;12.280;2024-03-23T01:34:32;8.35;;;5.47;;
79755;SDS011;69239;50.678;12.280;2024-03-23T01:36:57;6.82;;;4.18;;
79755;SDS011;69239;50.678;12.280;2024-03-23T01:39:22;7.17;;;4.43;;
79755;SDS011;69239;50.678;12.280;2024-03-23T01:41:48;7.30;;;4.20;;
79755;SDS011;69239;50.678;12.280;2024-03-23T01:44:13;5.60;;;3.73;;
79755;SDS011;69239;50.678;12.280;2024-03-23T01:46:38;8.23;;;4.43;;
79755;SDS011;69239;50.678;12.280;2024-03-23T01:49:08;6.40;;;3.27;;
79755;SDS011;69239;50.678;12.280;2024-03-23T01:51:33;7.43;;;4.50;;
79755;SDS011;69239;50.678;12.280;2024-03-23T01:54:00;8.30;;;4.43;;
79755;SDS011;69239;50.678;12.280;2024-03-23T01:56:31;6.82;;;4.35;;
79755;SDS011;69239;50.678;12.280;2024-03-23T01:59:03;6.45;;;4.18;;
79755;SDS011;69239;50.678;12.280;2024-03-23T02:01:31;9.75;;;4.90;;
79755;SDS011;69239;50.678;12.280;2024-03-23T02:03:58;9.05;;;5.07;;
79755;SDS011;69239;50.678;12.280;2024-03-23T02:06:26;8.30;;;4.78;;
79755;SDS011;69239;50.678;12.280;2024-03-23T02:08:52;8.77;;;4.25;;
79755;SDS011;69239;50.678;12.280;2024-03-23T02:11:21;8.88;;;4.38;;
79755;SDS011;69239;50.678;12.280;2024-03-23T02:13:46;7.87;;;5.23;;
79755;SDS011;69239;50.678;12.280;2024-03-23T02:16:12;7.73;;;3.40;;
79755;SDS011;69239;50.678;12.280;2024-03-23T02:18:40;6.63;;;4.03;;
79755;SDS011;69239;50.678;12.280;2024-03-23T02:21:06;7.75;;;4.35;;
79755;SDS011;69239;50.678;12.280;2024-03-23T02:23:33;5.50;;;3.75;;
79755;SDS011;69239;50.678;12.280;2024-03-23T02:26:03;7.45;;;4.55;;
79755;SDS011;69239;50.678;12.280;2024-03-23T02:28:29;8.10;;;4.72;;
79755;SDS011;69239;50.678;12.280;2024-03-23T02:30:54;6.97;;;4.37;;
79755;SDS011;69239;50.678;12.280;2024-03-23T02:33:19;8.10;;;4.70;;
79755;SDS011;69239;50.678;12.280;2024-03-23T02:35:45;5.63;;;3.30;;
79755;SDS011;69239;50.678;12.280;2024-03-23T02:38:12;7.35;;;4.55;;
79755;SDS011;69239;50.678;12.280;2024-03-23T02:40:37;8.20;;;4.40;;
79755;SDS011;69239;50.678;12.280;2024-03-23T02:43:05;6.10;;;4.03;;
79755;SDS011;69239;50.678;12.280;2024-03-23T02:45:30;7.03;;;4.57;;
79755;SDS011;69239;50.678;12.280;2024-03-23T02:47:56;4.80;;;3.63;;
79755;SDS011;69239;50.678;12.280;2024-03-23T02:50:21;6.43;;;4.57;;
79755;SDS011;69239;50.678;12.280;2024-03-23T02:52:47;8.73;;;4.40;;
79755;SDS011;69239;50.678;12.280;2024-03-23T02:55:13;6.63;;;4.32;;
79755;SDS011;69239;50.678;12.280;2024-03-23T02:57:38;7.32;;;4.45;;
79755;SDS011;69239;50.678;12.280;2024-03-23T03:00:04;8.23;;;4.05;;
79755;SDS011;69239;50.678;12.280;2024-03-23T03:02:31;5.45;;;3.47;;
79755;SDS011;69239;50.678;12.280;2024-03-23T03:04:56;5.10;;;3.43;;
79755;SDS011;69239;50.678;12.280;2024-03-23T03:07:21;4.60;;;3.33;;
79755;SDS011;69239;50.678;12.280;2024-03-23T03:09:47;4.37;;;3.10;;
79755;SDS011;69239;50.678;12.280;2024-03-23T03:12:12;4.73;;;3.23;;
79755;SDS011;69239;50.678;12.280;2024-03-23T03:14:37;6.27;;;3.77;;
79755;SDS011;69239;50.678;12.280;2024-03-23T03:17:02;6.90;;;4.50;;
79755;SDS011;69239;50.678;12.280;2024-03-23T03:19:28;9.43;;;5.22;;
79755;SDS011;69239;50.678;12.280;2024-03-23T03:21:53;11.20;;;5.63;;
79755;SDS011;69239;50.678;12.280;2024-03-23T03:24:18;8.75;;;5.15;;
79755;SDS011;69239;50.678;12.280;2024-03-23T03:26:44;9.18;;;5.45;;
79755;SDS011;69239;50.678;12.280;2024-03-23T03:29:09;10.55;;;5.13;;
79755;SDS011;69239;50.678;12.280;2024-03-23T03:31:35;8.18;;;4.90;;
79755;SDS011;69239;50.678;12.280;2024-03-23T03:34:00;6.43;;;4.37;;
79755;SDS011;69239;50.678;12.280;2024-03-23T03:36:25;6.73;;;4.07;;
79755;SDS011;69239;50.678;12.280;2024-03-23T03:38:51;8.80;;;4.10;;
79755;SDS011;69239;50.678;12.280;2024-03-23T03:41:16;9.17;;;4.90;;
79755;SDS011;69239;50.678;12.280;2024-03-23T03:43:41;13.30;;;5.90;;
79755;SDS011;69239;50.678;12.280;2024-03-23T03:46:06;7.30;;;4.00;;
79755;SDS011;69239;50.678;12.280;2024-03-23T03:48:33;7.88;;;4.55;;
79755;SDS011;69239;50.678;12.280;2024-03-23T03:50:58;8.70;;;4.47;;
79755;SDS011;69239;50.678;12.280;2024-03-23T03:53:24;10.07;;;5.47;;
79755;SDS011;69239;50.678;12.280;2024-03-23T03:55:49;8.33;;;4.50;;
79755;SDS011;69239;50.678;12.280;2024-03-23T03:58:14;8.57;;;4.90;;
79755;SDS011;69239;50.678;12.280;2024-03-23T04:00:40;8.75;;;4.20;;
79755;SDS011;69239;50.678;12.280;2024-03-23T04:03:06;8.50;;;4.63;;
79755;SDS011;69239;50.678;12.280;2024-03-23T04:05:32;8.57;;;4.33;;
79755;SDS011;69239;50.678;12.280;2024-03-23T04:07:57;6.63;;;4.40;;
79755;SDS011;69239;50.678;12.280;2024-03-23T04:10:23;11.30;;;6.40;;
79755;SDS011;69239;50.678;12.280;2024-03-23T04:12:48;12.03;;;6.83;;
79755;SDS011;69239;50.678;12.280;2024-03-23T04:15:13;11.60;;;6.20;;
79755;SDS011;69239;50.678;12.280;2024-03-23T04:17:39;8.77;;;5.20;;
79755;SDS011;69239;50.678;12.280;2024-03-23T04:20:04;14.30;;;6.97;;
79755;SDS011;69239;50.678;12.280;2024-03-23T04:22:35;10.50;;;5.57;;
79755;SDS011;69239;50.678;12.280;2024-03-23T04:25:01;11.43;;;5.90;;
79755;SDS011;69239;50.678;12.280;2024-03-23T04:27:32;11.32;;;6.72;;
79755;SDS011;69239;50.678;12.280;2024-03-23T04:29:57;17.20;;;9.38;;
79755;SDS011;69239;50.678;12.280;2024-03-23T04:32:23;12.60;;;7.33;;
79755;SDS011;69239;50.678;12.280;2024-03-23T04:34:48;11.40;;;6.30;;
79755;SDS011;69239;50.678;12.280;2024-03-23T04:37:13;13.20;;;7.13;;
79755;SDS011;69239;50.678;12.280;2024-03-23T04:39:38;11.10;;;6.87;;
79755;SDS011;69239;50.678;12.280;2024-03-23T04:42:04;14.23;;;6.38;;
79755;SDS011;69239;50.678;12.280;2024-03-23T04:44:30;9.85;;;5.10;;
79755;SDS011;69239;50.678;12.280;2024-03-23T04:46:57;10.20;;;5.60;;
79755;SDS011;69239;50.678;12.280;2024-03-23T04:49:22;10.15;;;4.93;;
79755;SDS011;69239;50.678;12.280;2024-03-23T04:51:47;10.83;;;5.40;;
79755;SDS011;69239;50.678;12.280;2024-03-23T04:54:14;11.13;;;5.88;;
79755;SDS011;69239;50.678;12.280;2024-03-23T04:56:39;11.23;;;5.38;;
79755;SDS011;69239;50.678;12.280;2024-03-23T04:59:05;8.70;;;5.18;;
79755;SDS011;69239;50.678;12.280;2024-03-23T05:01:31;9.53;;;5.50;;
79755;SDS011;69239;50.678;12.280;2024-03-23T05:03:56;10.00;;;5.05;;
79755;SDS011;69239;50.678;12.280;2024-03-23T05:06:26;9.52;;;5.22;;
79755;SDS011;69239;50.678;12.280;2024-03-23T05:08:52;11.80;;;6.32;;
79755;SDS011;69239;50.678;12.280;2024-03-23T05:11:17;12.80;;;6.25;;
79755;SDS011;69239;50.678;12.280;2024-03-23T05:13:43;15.85;;;7.57;;
79755;SDS011;69239;50.678;12.280;2024-03-23T05:16:10;13.43;;;6.85;;
79755;SDS011;69239;50.678;12.280;2024-03-23T05:18:35;11.97;;;6.17;;
79755;SDS011;69239;50.678;12.280;2024-03-23T05:21:01;10.95;;;6.57;;
79755;SDS011;69239;50.678;12.280;2024-03-23T05:23:27;12.23;;;6.60;;
79755;SDS011;69239;50.678;12.280;2024-03-23T05:25:53;12.63;;;7.13;;
79755;SDS011;69239;50.678;12.280;2024-03-23T05:28:19;15.25;;;7.53;;
79755;SDS011;69239;50.678;12.280;2024-03-23T05:30:54;15.07;;;8.02;;
79755;SDS011;69239;50.678;12.280;2024-03-23T05:33:20;17.73;;;8.82;;
79755;SDS011;69239;50.678;12.280;2024-03-23T05:35:46;19.35;;;9.63;;
79755;SDS011;69239;50.678;12.280;2024-03-23T05:38:12;19.00;;;10.15;;
79755;SDS011;69239;50.678;12.280;2024-03-23T05:40:37;20.63;;;10.20;;
79755;SDS011;69239;50.678;12.280;2024-03-23T05:43:05;22.77;;;10.13;;
79755;SDS011;69239;50.678;12.280;2024-03-23T05:45:34;20.80;;;10.88;;
79755;SDS011;69239;50.678;12.280;2024-03-23T05:47:59;17.55;;;10.18;;
79755;SDS011;69239;50.678;12.280;2024-03-23T05:50:24;17.60;;;9.83;;
79755;SDS011;69239;50.678;12.280;2024-03-23T05:52:50;18.63;;;9.80;;
79755;SDS011;69239;50.678;12.280;2024-03-23T05:55:15;17.90;;;9.97;;
79755;SDS011;69239;50.678;12.280;2024-03-23T05:57:41;19.83;;;10.52;;
79755;SDS011;69239;50.678;12.280;2024-03-23T06:00:06;24.75;;;11.02;;
79755;SDS011;69239;50.678;12.280;2024-03-23T06:02:40;20.45;;;10.57;;
79755;SDS011;69239;50.678;12.280;2024-03-23T06:05:05;21.40;;;11.70;;
79755;SDS011;69239;50.678;12.280;2024-03-23T06:07:31;21.77;;;10.82;;
79755;SDS011;69239;50.678;12.280;2024-03-23T06:09:56;22.63;;;10.65;;
79755;SDS011;69239;50.678;12.280;2024-03-23T06:12:23;18.25;;;9.80;;
79755;SDS011;69239;50.678;12.280;2024-03-23T06:14:49;20.50;;;10.73;;
79755;SDS011;69239;50.678;12.280;2024-03-23T06:17:15;19.35;;;10.63;;
79755;SDS011;69239;50.678;12.280;2024-03-23T06:19:40;21.45;;;11.18;;
79755;SDS011;69239;50.678;12.280;2024-03-23T06:22:05;19.33;;;10.93;;
79755;SDS011;69239;50.678;12.280;2024-03-23T06:24:31;17.17;;;9.10;;
79755;SDS011;69239;50.678;12.280;2024-03-23T06:26:57;19.67;;;9.77;;
79755;SDS011;69239;50.678;12.280;2024-03-23T06:29:22;17.83;;;9.57;;
79755;SDS011;69239;50.678;12.280;2024-03-23T06:31:52;16.93;;;9.77;;
79755;SDS011;69239;50.678;12.280;2024-03-23T06:34:18;17.25;;;10.23;;
79755;SDS011;69239;50.678;12.280;2024-03-23T06:36:44;18.80;;;9.93;;
79755;SDS011;69239;50.678;12.280;2024-03-23T06:39:09;19.00;;;10.32;;
79755;SDS011;69239;50.678;12.280;2024-03-23T06:41:37;18.85;;;10.27;;
79755;SDS011;69239;50.678;12.280;2024-03-23T06:44:02;17.53;;;10.30;;
79755;SDS011;69239;50.678;12.280;2024-03-23T06:46:29;15.20;;;9.00;;
79755;SDS011;69239;50.678;12.280;2024-03-23T06:48:55;20.30;;;9.97;;
79755;SDS011;69239;50.678;12.280;2024-03-23T06:51:20;16.77;;;9.05;;
79755;SDS011;69239;50.678;12.280;2024-03-23T06:53:46;17.20;;;9.67;;
79755;SDS011;69239;50.678;12.280;2024-03-23T06:56:11;14.80;;;9.23;;
79755;SDS011;69239;50.678;12.280;2024-03-23T06:58:36;18.07;;;10.03;;
79755;SDS011;69239;50.678;12.280;2024-03-23T07:01:01;13.83;;;8.67;;
79755;SDS011;69239;50.678;12.280;2024-03-23T07:03:27;13.63;;;7.63;;
79755;SDS011;69239;50.678;12.280;2024-03-23T07:05:52;14.07;;;8.33;;
79755;SDS011;69239;50.678;12.280;2024-03-23T07:08:17;16.20;;;9.40;;
79755;SDS011;69239;50.678;12.280;2024-03-23T07:10:47;14.98;;;8.07;;
79755;SDS011;69239;50.678;12.280;2024-03-23T07:13:12;12.98;;;7.68;;
79755;SDS011;69239;50.678;12.280;2024-03-23T07:15:37;14.20;;;7.83;;
79755;SDS011;69239;50.678;12.280;2024-03-23T07:18:03;14.77;;;8.13;;
79755;SDS011;69239;50.678;12.280;2024-03-23T07:20:28;14.23;;;8.33;;
79755;SDS011;69239;50.678;12.280;2024-03-23T07:22:55;13.57;;;7.78;;
79755;SDS011;69239;50.678;12.280;2024-03-23T07:25:20;11.33;;;7.47;;
79755;SDS011;69239;50.678;12.280;2024-03-23T07:27:47;13.98;;;8.27;;
79755;SDS011;69239;50.678;12.280;2024-03-23T07:30:13;14.07;;;8.05;;
79755;SDS011;69239;50.678;12.280;2024-03-23T07:32:38;13.37;;;7.60;;
79755;SDS011;69239;50.678;12.280;2024-03-23T07:35:03;11.77;;;7.37;;
79755;SDS011;69239;50.678;12.280;2024-03-23T07:37:29;13.45;;;7.07;;
79755;SDS011;69239;50.678;12.280;2024-03-23T07:39:54;13.32;;;8.00;;
79755;SDS011;69239;50.678;12.280;2024-03-23T07:42:20;13.10;;;7.60;;
79755;SDS011;69239;50.678;12.280;2024-03-23T07:44:45;10.20;;;6.30;;
79755;SDS011;69239;50.678;12.280;2024-03-23T07:47:11;14.30;;;7.35;;
79755;SDS011;69239;50.678;12.280;2024-03-23T07:49:37;10.77;;;7.30;;
79755;SDS011;69239;50.678;12.280;2024-03-23T07:52:02;12.13;;;7.90;;
79755;SDS011;69239;50.678;12.280;2024-03-23T07:54:27;11.48;;;7.10;;
79755;SDS011;69239;50.678;12.280;2024-03-23T07:56:53;12.60;;;7.55;;
79755;SDS011;69239;50.678;12.280;2024-03-23T07:59:19;11.07;;;7.15;;
79755;SDS011;69239;50.678;12.280;2024-03-23T08:01:44;13.10;;;7.53;;
79755;SDS011;69239;50.678;12.280;2024-03-23T08:04:10;12.30;;;8.50;;
79755;SDS011;69239;50.678;12.280;2024-03-23T08:06:36;14.90;;;7.22;;
79755;SDS011;69239;50.678;12.280;2024-03-23T08:09:02;12.25;;;6.88;;
79755;SDS011;69239;50.678;12.280;2024-03-23T08:11:28;17.20;;;7.97;;
79755;SDS011;69239;50.678;12.280;2024-03-23T08:13:54;14.93;;;6.88;;
79755;SDS011;69239;50.678;12.280;2024-03-23T08:16:20;13.55;;;8.40;;
79755;SDS011;69239;50.678;12.280;2024-03-23T08:18:45;13.83;;;7.60;;
79755;SDS011;69239;50.678;12.280;2024-03-23T08:21:10;12.68;;;7.88;;
79755;SDS011;69239;50.678;12.280;2024-03-23T08:23:36;13.50;;;8.00;;
79755;SDS011;69239;50.678;12.280;2024-03-23T08:26:06;14.98;;;7.85;;
79755;SDS011;69239;50.678;12.280;2024-03-23T08:28:33;15.02;;;8.27;;
79755;SDS011;69239;50.678;12.280;2024-03-23T08:31:03;18.63;;;9.67;;
79755;SDS011;69239;50.678;12.280;2024-03-23T08:33:32;18.83;;;9.32;;
79755;SDS011;69239;50.678;12.280;2024-03-23T08:35:59;18.88;;;10.18;;
79755;SDS011;69239;50.678;12.280;2024-03-23T08:38:28;14.18;;;8.00;;
79755;SDS011;69239;50.678;12.280;2024-03-23T08:41:01;19.48;;;10.50;;
79755;SDS011;69239;50.678;12.280;2024-03-23T08:43:40;13.55;;;8.77;;
79755;SDS011;69239;50.678;12.280;2024-03-23T08:46:07;7.95;;;3.40;;
79755;SDS011;69239;50.678;12.280;2024-03-23T08:48:35;3.80;;;1.92;;
79755;SDS011;69239;50.678;12.280;2024-03-23T08:51:04;2.10;;;1.30;;
79755;SDS011;69239;50.678;12.280;2024-03-23T08:53:31;1.98;;;1.02;;
79755;SDS011;69239;50.678;12.280;2024-03-23T08:55:56;2.22;;;1.40;;
79755;SDS011;69239;50.678;12.280;2024-03-23T08:58:23;2.15;;;1.45;;
79755;SDS011;69239;50.678;12.280;2024-03-23T09:00:50;2.00;;;1.38;;
79755;SDS011;69239;50.678;12.280;2024-03-23T09:03:16;1.65;;;1.20;;
79755;SDS011;69239;50.678;12.280;2024-03-23T09:05:41;3.00;;;1.20;;
79755;SDS011;69239;50.678;12.280;2024-03-23T09:08:07;1.33;;;0.85;;
79755;SDS011;69239;50.678;12.280;2024-03-23T09:10:37;1.20;;;0.80;;
79755;SDS011;69239;50.678;12.280;2024-03-23T09:13:04;1.23;;;0.55;;
79755;SDS011;69239;50.678;12.280;2024-03-23T09:15:29;1.57;;;0.53;;
79755;SDS011;69239;50.678;12.280;2024-03-23T09:17:54;0.50;;;0.40;;
79755;SDS011;69239;50.678;12.280;2024-03-23T09:20:19;1.97;;;0.40;;
79755;SDS011;69239;50.678;12.280;2024-03-23T09:22:45;2.20;;;0.37;;
79755;SDS011;69239;50.678;12.280;2024-03-23T09:25:10;0.70;;;0.50;;
79755;SDS011;69239;50.678;12.280;2024-03-23T09:27:35;0.80;;;0.57;;
79755;SDS011;69239;50.678;12.280;2024-03-23T09:30:00;0.40;;;0.30;;
79755;SDS011;69239;50.678;12.280;2024-03-23T09:32:25;0.67;;;0.50;;
79755;SDS011;69239;50.678;12.280;2024-03-23T09:34:51;1.00;;;0.70;;
79755;SDS011;69239;50.678;12.280;2024-03-23T09:37:16;0.97;;;0.60;;
79755;SDS011;69239;50.678;12.280;2024-03-23T09:39:41;0.30;;;0.30;;
79755;SDS011;69239;50.678;12.280;2024-03-23T09:42:06;0.50;;;0.40;;
79755;SDS011;69239;50.678;12.280;2024-03-23T09:44:32;0.52;;;0.28;;
79755;SDS011;69239;50.678;12.280;2024-03-23T09:46:57;0.70;;;0.50;;
79755;SDS011;69239;50.678;12.280;2024-03-23T09:49:22;0.40;;;0.40;;
79755;SDS011;69239;50.678;12.280;2024-03-23T09:51:48;0.22;;;0.20;;
79755;SDS011;69239;50.678;12.280;2024-03-23T09:54:13;0.30;;;0.28;;
79755;SDS011;69239;50.678;12.280;2024-03-23T09:56:39;0.30;;;0.30;;
79755;SDS011;69239;50.678;12.280;2024-03-23T09:59:04;0.40;;;0.30;;
79755;SDS011;69239;50.678;12.280;2024-03-23T10:01:30;0.30;;;0.30;;
79755;SDS011;69239;50.678;12.280;2024-03-23T10:03:55;0.17;;;0.17;;
79755;SDS011;69239;50.678;12.280;2024-03-23T10:06:23;0.30;;;0.30;;
79755;SDS011;69239;50.678;12.280;2024-03-23T10:08:52;1.20;;;0.40;;
79755;SDS011;69239;50.678;12.280;2024-03-23T10:11:20;0.50;;;0.32;;
79755;SDS011;69239;50.678;12.280;2024-03-23T10:13:46;0.57;;;0.35;;
79755;SDS011;69239;50.678;12.280;2024-03-23T10:16:11;0.40;;;0.35;;
79755;SDS011;69239;50.678;12.280;2024-03-23T10:18:38;0.30;;;0.30;;
79755;SDS011;69239;50.678;12.280;2024-03-23T10:23:35;0.70;;;0.40;;
79755;SDS011;69239;50.678;12.280;2024-03-23T10:31:33;0.10;;;0.10;;
79755;SDS011;69239;50.678;12.280;2024-03-23T10:33:58;0.65;;;0.30;;
79755;SDS011;69239;50.678;12.280;2024-03-23T10:36:25;0.22;;;0.20;;
79755;SDS011;69239;50.678;12.280;2024-03-23T10:38:51;0.30;;;0.30;;
79755;SDS011;69239;50.678;12.280;2024-03-23T10:41:17;0.50;;;0.40;;
79755;SDS011;69239;50.678;12.280;2024-03-23T10:43:42;0.45;;;0.30;;
79755;SDS011;69239;50.678;12.280;2024-03-23T10:46:09;0.22;;;0.20;;
79755;SDS011;69239;50.678;12.280;2024-03-23T10:48:34;0.20;;;0.20;;
79755;SDS011;69239;50.678;12.280;2024-03-23T10:51:00;0.40;;;0.20;;
79755;SDS011;69239;50.678;12.280;2024-03-23T10:53:26;0.17;;;0.17;;
79755;SDS011;69239;50.678;12.280;2024-03-23T10:55:52;0.17;;;0.17;;
79755;SDS011;69239;50.678;12.280;2024-03-23T10:58:23;0.20;;;0.20;;
79755;SDS011;69239;50.678;12.280;2024-03-23T11:00:52;0.47;;;0.20;;
79755;SDS011;69239;50.678;12.280;2024-03-23T11:03:37;1.08;;;0.57;;
79755;SDS011;69239;50.678;12.280;2024-03-23T11:06:06;0.20;;;0.20;;
79755;SDS011;69239;50.678;12.280;2024-03-23T11:08:36;0.75;;;0.35;;
79755;SDS011;69239;50.678;12.280;2024-03-23T11:11:13;0.20;;;0.20;;
79755;SDS011;69239;50.678;12.280;2024-03-23T11:13:47;0.82;;;0.35;;
79755;SDS011;69239;50.678;12.280;2024-03-23T11:19:33;0.40;;;0.20;;
79755;SDS011;69239;50.678;12.280;2024-03-23T11:22:02;0.73;;;0.40;;
79755;SDS011;69239;50.678;12.280;2024-03-23T11:24:28;1.08;;;0.47;;
79755;SDS011;69239;50.678;12.280;2024-03-23T11:26:53;0.50;;;0.47;;
79755;SDS011;69239;50.678;12.280;2024-03-23T11:29:19;0.95;;;0.70;;
79755;SDS011;69239;50.678;12.280;2024-03-23T11:31:45;1.43;;;0.93;;
79755;SDS011;69239;50.678;12.280;2024-03-23T11:34:17;1.15;;;0.85;;
79755;SDS011;69239;50.678;12.280;2024-03-23T11:36:43;0.60;;;0.35;;
79755;SDS011;69239;50.678;12.280;2024-03-23T11:39:15;1.27;;;0.60;;
79755;SDS011;69239;50.678;12.280;2024-03-23T11:41:55;1.20;;;0.43;;
79755;SDS011;69239;50.678;12.280;2024-03-23T11:44:22;1.42;;;0.63;;
79755;SDS011;69239;50.678;12.280;2024-03-23T11:46:50;4.68;;;0.80;;
79755;SDS011;69239;50.678;12.280;2024-03-23T11:54:14;1.73;;;0.73;;
79755;SDS011;69239;50.678;12.280;2024-03-23T11:56:39;4.33;;;1.60;;
79755;SDS011;69239;50.678;12.280;2024-03-23T11:59:04;3.73;;;1.83;;
79755;SDS011;69239;50.678;12.280;2024-03-23T12:01:29;6.07;;;1.40;;
79755;SDS011;69239;50.678;12.280;2024-03-23T12:03:56;4.03;;;0.90;;
79755;SDS011;69239;50.678;12.280;2024-03-23T12:06:21;4.00;;;1.20;;
79755;SDS011;69239;50.678;12.280;2024-03-23T12:08:46;3.30;;;0.98;;
79755;SDS011;69239;50.678;12.280;2024-03-23T12:11:16;2.40;;;0.90;;
79755;SDS011;69239;50.678;12.280;2024-03-23T12:13:42;3.08;;;1.23;;
79755;SDS011;69239;50.678;12.280;2024-03-23T12:16:11;2.35;;;1.05;;
79755;SDS011;69239;50.678;12.280;2024-03-23T12:18:41;2.67;;;1.10;;
79755;SDS011;69239;50.678;12.280;2024-03-23T12:21:08;2.67;;;1.02;;
79755;SDS011;69239;50.678;12.280;2024-03-23T12:23:34;5.32;;;1.30;;
79755;SDS011;69239;50.678;12.280;2024-03-23T12:25:59;2.70;;;1.40;;
79755;SDS011;69239;50.678;12.280;2024-03-23T12:28:24;4.32;;;1.40;;
79755;SDS011;69239;50.678;12.280;2024-03-23T12:30:50;1.15;;;0.80;;
79755;SDS011;69239;50.678;12.280;2024-03-23T12:33:17;5.28;;;1.20;;
79755;SDS011;69239;50.678;12.280;2024-03-23T12:35:42;6.43;;;1.43;;
79755;SDS011;69239;50.678;12.280;2024-03-23T12:38:07;3.80;;;1.10;;
79755;SDS011;69239;50.678;12.280;2024-03-23T12:40:32;3.80;;;1.33;;
79755;SDS011;69239;50.678;12.280;2024-03-23T12:42:57;4.00;;;1.30;;
79755;SDS011;69239;50.678;12.280;2024-03-23T12:45:23;5.10;;;1.43;;
79755;SDS011;69239;50.678;12.280;2024-03-23T12:47:48;4.10;;;1.52;;
79755;SDS011;69239;50.678;12.280;2024-03-23T12:50:13;4.00;;;1.50;;
79755;SDS011;69239;50.678;12.280;2024-03-23T12:52:39;4.68;;;1.85;;
79755;SDS011;69239;50.678;12.280;2024-03-23T12:55:04;5.38;;;2.03;;
79755;SDS011;69239;50.678;12.280;2024-03-23T12:57:33;3.83;;;1.42;;
79755;SDS011;69239;50.678;12.280;2024-03-23T12:59:58;3.33;;;1.40;;
79755;SDS011;69239;50.678;12.280;2024-03-23T13:02:24;5.10;;;1.88;;
79755;SDS011;69239;50.678;12.280;2024-03-23T13:04:49;5.27;;;1.80;;
79755;SDS011;69239;50.678;12.280;2024-03-23T13:07:15;6.97;;;2.22;;
79755;SDS011;69239;50.678;12.280;2024-03-23T13:09:41;3.80;;;1.52;;
79755;SDS011;69239;50.678;12.280;2024-03-23T13:12:07;3.35;;;1.33;;
79755;SDS011;69239;50.678;12.280;2024-03-23T13:14:32;3.53;;;1.30;;
79755;SDS011;69239;50.678;12.280;2024-03-23T13:16:57;6.47;;;1.30;;
79755;SDS011;69239;50.678;12.280;2024-03-23T13:19:23;2.60;;;1.60;;
79755;SDS011;69239;50.678;12.280;2024-03-23T13:21:52;6.82;;;1.85;;
79755;SDS011;69239;50.678;12.280;2024-03-23T13:24:20;4.65;;;2.20;;
79755;SDS011;69239;50.678;12.280;2024-03-23T13:26:46;5.78;;;2.38;;
79755;SDS011;69239;50.678;12.280;2024-03-23T13:29:12;5.77;;;1.90;;
79755;SDS011;69239;50.678;12.280;2024-03-23T13:31:37;6.13;;;2.30;;
79755;SDS011;69239;50.678;12.280;2024-03-23T13:34:02;7.30;;;2.23;;
79755;SDS011;69239;50.678;12.280;2024-03-23T13:36:27;7.10;;;2.40;;
79755;SDS011;69239;50.678;12.280;2024-03-23T13:38:53;7.53;;;3.05;;
79755;SDS011;69239;50.678;12.280;2024-03-23T13:41:18;9.00;;;4.10;;
79755;SDS011;69239;50.678;12.280;2024-03-23T13:43:43;4.80;;;3.20;;
79755;SDS011;69239;50.678;12.280;2024-03-23T13:46:08;8.17;;;2.53;;
79755;SDS011;69239;50.678;12.280;2024-03-23T13:48:34;5.20;;;1.87;;
79755;SDS011;69239;50.678;12.280;2024-03-23T13:50:59;3.93;;;1.70;;
79755;SDS011;69239;50.678;12.280;2024-03-23T13:53:28;4.03;;;2.15;;
79755;SDS011;69239;50.678;12.280;2024-03-23T13:55:54;3.10;;;1.35;;
79755;SDS011;69239;50.678;12.280;2024-03-23T13:58:19;7.43;;;1.63;;
79755;SDS011;69239;50.678;12.280;2024-03-23T14:00:45;5.95;;;1.55;;
79755;SDS011;69239;50.678;12.280;2024-03-23T14:03:10;3.40;;;1.33;;
79755;SDS011;69239;50.678;12.280;2024-03-23T14:05:37;2.00;;;0.93;;
79755;SDS011;69239;50.678;12.280;2024-03-23T14:08:08;4.00;;;1.35;;
79755;SDS011;69239;50.678;12.280;2024-03-23T14:10:34;5.13;;;1.10;;
79755;SDS011;69239;50.678;12.280;2024-03-23T14:13:01;3.35;;;1.02;;
79755;SDS011;69239;50.678;12.280;2024-03-23T14:15:26;1.33;;;0.80;;
79755;SDS011;69239;50.678;12.280;2024-03-23T14:17:53;2.33;;;0.75;;
79755;SDS011;69239;50.678;12.280;2024-03-23T14:20:20;1.63;;;0.70;;
79755;SDS011;69239;50.678;12.280;2024-03-23T14:22:46;1.70;;;1.10;;
79755;SDS011;69239;50.678;12.280;2024-03-23T14:25:11;3.23;;;0.90;;
79755;SDS011;69239;50.678;12.280;2024-03-23T14:27:36;4.90;;;0.97;;
79755;SDS011;69239;50.678;12.280;2024-03-23T14:30:02;2.50;;;1.02;;
79755;SDS011;69239;50.678;12.280;2024-03-23T14:32:29;2.72;;;0.82;;
79755;SDS011;69239;50.678;12.280;2024-03-23T14:34:58;3.03;;;1.10;;
79755;SDS011;69239;50.678;12.280;2024-03-23T14:37:23;2.63;;;1.20;;
79755;SDS011;69239;50.678;12.280;2024-03-23T14:39:49;2.47;;;1.42;;
79755;SDS011;69239;50.678;12.280;2024-03-23T14:42:14;2.37;;;1.07;;
79755;SDS011;69239;50.678;12.280;2024-03-23T14:44:39;4.00;;;1.20;;
79755;SDS011;69239;50.678;12.280;2024-03-23T14:47:04;3.13;;;1.10;;
79755;SDS011;69239;50.678;12.280;2024-03-23T14:49:30;2.33;;;0.93;;
79755;SDS011;69239;50.678;12.280;2024-03-23T14:51:56;5.22;;;1.10;;
79755;SDS011;69239;50.678;12.280;2024-03-23T14:54:21;3.70;;;0.97;;
79755;SDS011;69239;50.678;12.280;2024-03-23T14:56:46;2.43;;;1.00;;
79755;SDS011;69239;50.678;12.280;2024-03-23T14:59:12;5.60;;;1.17;;
79755;SDS011;69239;50.678;12.280;2024-03-23T15:01:37;1.20;;;0.60;;
79755;SDS011;69239;50.678;12.280;2024-03-23T15:04:03;1.97;;;0.87;;
79755;SDS011;69239;50.678;12.280;2024-03-23T15:06:28;3.70;;;1.00;;
79755;SDS011;69239;50.678;12.280;2024-03-23T15:08:54;0.53;;;0.50;;
79755;SDS011;69239;50.678;12.280;2024-03-23T15:11:19;1.43;;;0.83;;
79755;SDS011;69239;50.678;12.280;2024-03-23T15:13:44;1.85;;;1.10;;
79755;SDS011;69239;50.678;12.280;2024-03-23T15:16:10;1.52;;;0.60;;
79755;SDS011;69239;50.678;12.280;2024-03-23T15:18:35;2.10;;;0.80;;
79755;SDS011;69239;50.678;12.280;2024-03-23T15:21:03;2.05;;;1.10;;
79755;SDS011;69239;50.678;12.280;2024-03-23T15:23:31;2.25;;;0.88;;
79755;SDS011;69239;50.678;12.280;2024-03-23T15:25:57;1.80;;;0.65;;
79755;SDS011;69239;50.678;12.280;2024-03-23T15:28:23;3.15;;;0.93;;
79755;SDS011;69239;50.678;12.280;2024-03-23T15:30:49;3.17;;;1.20;;
79755;SDS011;69239;50.678;12.280;2024-03-23T15:33:14;4.28;;;1.10;;